Terminal Aerodrome Forecast
Issued by NWS

Home | Current Version | Previous Version | Text Only | Print | Product List | Glossary On
Versions: 1 2 3 4 5 6 7 8 9 10 11 12 13 14 15 16 17 18 19
000
FTUS43 KICT 261741
TAFRSL
TAF
KRSL 261741Z 2618/2718 22011KT P6SM SCT100
     FM261900 24016G23KT P6SM SCT100
     FM270000 34017G25KT P6SM BKN070
     FM270400 02017G25KT P6SM SCT015 BKN070
     FM271000 04010KT P6SM SCT015 BKN050
     FM271500 13008KT P6SM SCT050=

USA.gov is the U.S. government's official web portal to all federal, state and local government web resources and services.